Time;durP1;ratioP1;P1;durP2;ratioP2;P2;SDS_P1;SDS_P2;PMS_P1;PMS_P2;Temp;Humidity;BMP_temperature;BMP_pressure;BME280_temperature;BME280_humidity;BME280_pressure;Samples;Min_cycle;Max_cycle;Signal;HPM_P1;HPM_P2
2022/01/30 00:01:44;;;;;;;13.87;3.60;;;;;;;6.00;81.68;101993.88;5114103;28;20190;-67
2022/01/30 00:04:11;;;;;;;15.77;3.43;;;;;;;6.05;81.58;101990.41;5114332;28;20181;-68
2022/01/30 00:06:38;;;;;;;12.60;3.50;;;;;;;5.97;81.92;101986.09;5114014;28;20193;-69
2022/01/30 00:09:08;;;;;;;11.97;3.27;;;;;;;6.04;81.66;101983.47;5113889;28;20213;-69
2022/01/30 00:11:37;;;;;;;13.90;3.33;;;;;;;6.04;81.84;101990.41;5114571;28;20177;-69
2022/01/30 00:14:06;;;;;;;17.10;4.70;;;;;;;5.96;82.25;101987.81;5096487;28;20190;-69
2022/01/30 00:16:36;;;;;;;9.13;3.70;;;;;;;5.93;82.47;102000.84;5113911;28;20185;-69
2022/01/30 00:21:35;;;;;;;22.63;3.87;;;;;;;5.84;83.03;102005.13;5113774;28;20731;-69
2022/01/30 00:24:17;;;;;;;13.07;4.00;;;;;;;5.78;83.01;102009.47;5114447;28;20521;-69
2022/01/30 00:26:46;;;;;;;9.83;3.53;;;;;;;5.69;83.48;102006.00;5114678;28;20181;-69
2022/01/30 00:29:14;;;;;;;7.00;3.70;;;;;;;5.70;83.31;102024.19;5095424;28;20221;-69
2022/01/30 00:31:42;;;;;;;8.87;3.20;;;;;;;5.72;83.31;102026.81;5113669;28;20550;-69
2022/01/30 00:34:28;;;;;;;11.00;3.40;;;;;;;5.66;83.27;102027.69;5114256;28;20651;-69
2022/01/30 00:36:55;;;;;;;9.67;3.53;;;;;;;5.67;82.58;102032.00;5095413;28;20197;-69
2022/01/30 00:39:21;;;;;;;20.83;4.03;;;;;;;5.64;82.77;102026.78;5113650;28;20554;-69
2022/01/30 00:41:48;;;;;;;19.27;4.03;;;;;;;5.63;82.45;102019.88;5095500;28;20185;-69
2022/01/30 00:44:15;;;;;;;18.53;3.73;;;;;;;5.60;82.30;102022.47;5078691;28;20216;-69
2022/01/30 00:46:44;;;;;;;14.27;3.77;;;;;;;5.58;82.03;102011.22;5113616;28;20185;-69
2022/01/30 00:49:10;;;;;;;12.00;3.90;;;;;;;5.58;81.75;102012.97;5113430;28;20217;-69
2022/01/30 00:51:37;;;;;;;14.37;4.20;;;;;;;5.56;81.60;102012.94;5095321;28;20193;-69
2022/01/30 00:54:04;;;;;;;11.97;3.60;;;;;;;5.44;81.85;102021.59;5113781;28;20185;-69
2022/01/30 00:56:31;;;;;;;6.27;2.83;;;;;;;5.48;81.69;102025.06;5114130;28;20186;-69
2022/01/30 01:03:04;;;;;;;14.47;4.47;;;;;;;5.54;81.01;102022.47;5117863;28;20160;-69
2022/01/30 01:05:34;;;;;;;8.77;3.60;;;;;;;5.51;81.00;102027.69;5117504;28;20183;-69
2022/01/30 01:08:09;;;;;;;25.27;4.53;;;;;;;5.52;81.25;102032.88;5117476;28;20213;-69
2022/01/30 01:10:45;;;;;;;18.83;3.90;;;;;;;5.58;81.40;102032.00;5099219;28;20188;-69
2022/01/30 01:24:01;;;;;;;4.83;3.37;;;;;;;5.61;81.75;102026.81;5098829;28;20185;-69
2022/01/30 01:26:28;;;;;;;19.50;3.17;;;;;;;5.64;81.41;102021.59;5117419;28;20233;-69
2022/01/30 01:28:54;;;;;;;15.57;2.93;;;;;;;5.57;81.75;102019.84;5116974;28;20663;-69
2022/01/30 01:31:22;;;;;;;11.57;4.07;;;;;;;5.50;81.92;102025.91;5098756;28;20218;-69
2022/01/30 01:36:23;;;;;;;13.47;3.30;;;;;;;5.48;81.67;102019.88;5098709;28;20177;-69
2022/01/30 01:38:50;;;;;;;15.57;3.43;;;;;;;5.45;81.96;102018.13;5116793;28;20254;-69
2022/01/30 01:41:19;;;;;;;15.80;3.27;;;;;;;5.41;81.84;102010.34;5116817;28;20193;-69
2022/01/30 01:43:48;;;;;;;14.00;3.63;;;;;;;5.43;82.00;102019.88;5116739;28;20189;-69
2022/01/30 01:46:22;;;;;;;13.57;3.93;;;;;;;5.34;82.12;102011.19;5098400;28;20569;-69
2022/01/30 01:48:51;;;;;;;10.80;3.83;;;;;;;5.33;82.26;102012.06;5098207;28;20220;-69
2022/01/30 01:51:21;;;;;;;16.70;3.10;;;;;;;5.37;82.01;102014.69;5098325;28;20185;-69
2022/01/30 01:53:50;;;;;;;14.37;3.33;;;;;;;5.38;82.03;102020.72;5099426;28;20537;-69
2022/01/30 01:56:18;;;;;;;8.57;3.13;;;;;;;5.37;82.17;102032.00;5098240;28;20238;-69
2022/01/30 01:58:51;;;;;;;30.43;5.03;;;;;;;5.31;82.38;102042.38;5098424;28;20335;-69
2022/01/30 02:01:28;;;;;;;21.70;4.80;;;;;;;5.29;82.53;102046.66;5098735;28;20237;-69
2022/01/30 02:03:56;;;;;;;13.33;4.33;;;;;;;5.14;83.25;102055.28;5116322;28;20690;-69
2022/01/30 02:06:24;;;;;;;16.43;3.50;;;;;;;5.10;83.54;102049.25;5098005;28;20191;-69
2022/01/30 02:08:59;;;;;;;7.37;4.03;;;;;;;5.20;83.50;102056.16;5098483;28;20221;-69
2022/01/30 02:11:36;;;;;;;10.73;4.67;;;;;;;5.20;83.49;102045.78;5097502;28;20242;-69
2022/01/30 02:28:13;;;;;;;7.43;3.20;;;;;;;5.00;84.33;102073.44;5016650;28;20216;-69
2022/01/30 02:30:45;;;;;;;22.00;5.17;;;;;;;4.98;84.87;102065.63;5101763;28;20201;-69
2022/01/30 02:33:12;;;;;;;11.03;3.63;;;;;;;4.98;84.65;102068.22;5097562;28;20197;-69
2022/01/30 02:35:38;;;;;;;10.30;3.63;;;;;;;4.85;85.20;102078.53;5097501;28;20200;-69
2022/01/30 02:38:05;;;;;;;19.03;4.57;;;;;;;4.85;85.13;102074.22;5097322;28;20224;-69
2022/01/30 02:40:37;;;;;;;31.97;4.57;;;;;;;4.80;85.16;102090.66;5097414;28;20212;-69
2022/01/30 02:43:05;;;;;;;15.70;4.00;;;;;;;4.73;85.68;102094.94;5097348;28;20186;-69
2022/01/30 02:45:43;;;;;;;11.33;4.40;;;;;;;4.69;85.76;102088.84;5097630;28;20211;-69
2022/01/30 02:50:53;;;;;;;18.47;4.20;;;;;;;4.72;85.52;102093.22;5097192;28;20208;-69
2022/01/30 02:53:29;;;;;;;14.70;4.27;;;;;;;4.72;85.36;102100.13;5097706;28;20195;-69
2022/01/30 02:55:57;;;;;;;18.27;4.97;;;;;;;4.69;85.50;102100.97;5097347;28;20632;-69
2022/01/30 02:58:23;;;;;;;15.83;3.63;;;;;;;4.66;85.57;102103.56;5096950;28;20203;-69
2022/01/30 03:00:50;;;;;;;27.70;5.73;;;;;;;4.70;85.72;102102.69;5096987;28;20200;-69
2022/01/30 03:03:16;;;;;;;18.30;4.83;;;;;;;4.69;85.46;102101.81;5080229;28;20616;-69
2022/01/30 03:05:43;;;;;;;17.43;4.27;;;;;;;4.67;85.37;102094.91;5096981;28;20287;-69
2022/01/30 03:08:10;;;;;;;12.03;4.50;;;;;;;4.68;85.33;102081.06;5096748;28;20605;-69
2022/01/30 03:10:37;;;;;;;25.87;5.50;;;;;;;4.58;85.44;102077.56;5096854;28;20296;-69
2022/01/30 03:13:03;;;;;;;23.77;5.10;;;;;;;4.61;85.46;102081.91;5096794;28;20200;-69
2022/01/30 03:15:29;;;;;;;14.23;3.37;;;;;;;4.60;85.26;102088.81;5096798;28;20283;-69
2022/01/30 03:17:56;;;;;;;10.17;3.97;;;;;;;4.66;84.96;102094.03;5115163;28;20628;-69
2022/01/30 03:20:23;;;;;;;8.37;3.37;;;;;;;4.56;85.50;102096.56;5096503;28;20195;-69
2022/01/30 03:22:49;;;;;;;14.20;4.07;;;;;;;4.65;84.89;102084.53;5096165;28;20184;-69
2022/01/30 03:25:16;;;;;;;16.77;4.90;;;;;;;4.73;84.98;102088.91;5115058;28;20182;-69
2022/01/30 03:27:55;;;;;;;30.23;4.53;;;;;;;4.72;84.96;102088.03;5096294;28;20693;-69
2022/01/30 03:30:30;;;;;;;25.40;4.53;;;;;;;4.79;84.98;102099.31;5097041;28;20192;-69
2022/01/30 03:33:15;;;;;;;11.83;3.83;;;;;;;4.77;84.87;102091.50;5114941;28;20180;-69
2022/01/30 03:35:42;;;;;;;7.30;3.37;;;;;;;4.83;84.73;102095.84;5114567;28;20275;-69
2022/01/30 03:38:10;;;;;;;10.17;3.33;;;;;;;4.76;84.85;102094.09;5096167;28;20299;-69
2022/01/30 03:40:38;;;;;;;11.33;3.73;;;;;;;4.75;85.19;102100.13;5096220;28;20185;-69
2022/01/30 03:43:05;;;;;;;15.00;4.07;;;;;;;4.72;85.24;102100.13;5096175;28;20230;-69
2022/01/30 03:45:32;;;;;;;13.77;3.70;;;;;;;4.70;85.56;102113.94;5096142;28;20210;-69
2022/01/30 03:48:00;;;;;;;14.97;4.00;;;;;;;4.67;85.46;102110.47;5095987;28;20224;-69
2022/01/30 03:50:52;;;;;;;9.50;3.87;;;;;;;4.58;85.81;102113.88;5083132;28;20204;-69
2022/01/30 03:53:19;;;;;;;15.73;4.90;;;;;;;4.58;85.69;102107.84;5096026;28;20193;-69
2022/01/30 03:55:45;;;;;;;13.70;3.47;;;;;;;4.56;85.65;102107.81;5095988;28;20189;-69
2022/01/30 03:58:20;;;;;;;18.90;4.87;;;;;;;4.54;85.80;102113.84;5096068;28;20208;-69
2022/01/30 04:00:47;;;;;;;15.73;3.97;;;;;;;4.51;85.95;102116.44;5095881;28;20204;-69
2022/01/30 04:03:14;;;;;;;10.83;3.93;;;;;;;4.44;86.13;102117.25;5096424;28;20560;-69
2022/01/30 04:05:40;;;;;;;28.10;5.00;;;;;;;4.46;86.08;102115.53;5114026;28;20658;-69
2022/01/30 04:08:08;;;;;;;11.67;3.83;;;;;;;4.42;86.18;102114.63;5095662;28;20266;-69
2022/01/30 04:10:37;;;;;;;13.33;3.63;;;;;;;4.44;85.95;102115.53;5113949;28;20657;-68
2022/01/30 04:13:24;;;;;;;3.97;3.10;;;;;;;4.42;86.01;102114.63;5095842;28;20191;-68
2022/01/30 04:16:09;;;;;;;12.83;3.73;;;;;;;4.43;85.82;102113.81;5114254;28;20229;-69
2022/01/30 04:18:57;;;;;;;18.27;4.07;;;;;;;4.45;85.91;102114.66;5113317;28;20218;-69
2022/01/30 04:21:44;;;;;;;17.60;3.70;;;;;;;4.42;85.83;102125.00;5099747;28;20204;-69
2022/01/30 04:24:29;;;;;;;21.70;3.90;;;;;;;4.45;85.67;102122.44;5114157;28;20176;-69
2022/01/30 04:27:20;;;;;;;26.20;4.27;;;;;;;4.50;85.23;102132.84;5102597;28;20247;-69
2022/01/30 04:29:59;;;;;;;15.67;3.70;;;;;;;4.42;85.75;102141.44;5095756;28;20676;-68
2022/01/30 04:32:27;;;;;;;7.80;3.13;;;;;;;4.44;85.68;102146.66;5113757;28;20198;-68
2022/01/30 04:35:25;;;;;;;12.97;4.03;;;;;;;4.47;85.73;102146.66;5113402;28;20609;-68
2022/01/30 04:53:18;;;;;;;22.47;3.93;;;;;;;4.46;85.78;102168.25;5113617;28;20242;-68
2022/01/30 05:07:33;;;;;;;13.50;4.33;;;;;;;4.52;85.15;102167.44;5102549;28;20268;-69
2022/01/30 05:10:26;;;;;;;8.87;3.70;;;;;;;4.45;86.00;102176.03;5082149;28;20196;-69
2022/01/30 05:13:18;;;;;;;14.60;3.93;;;;;;;4.48;85.20;102171.72;5095198;28;20188;-69
2022/01/30 05:16:04;;;;;;;13.63;3.10;;;;;;;4.54;84.78;102171.78;5113741;28;20223;-69
2022/01/30 05:18:50;;;;;;;22.33;4.10;;;;;;;4.40;85.23;102169.09;5095011;28;20211;-69
2022/01/30 05:21:31;;;;;;;11.00;4.43;;;;;;;4.38;84.89;102165.63;5094854;28;20198;-69
2022/01/30 05:24:12;;;;;;;13.37;4.13;;;;;;;4.35;84.73;102172.50;5095895;28;20191;-69
2022/01/30 05:26:51;;;;;;;8.20;3.40;;;;;;;4.28;85.04;102166.38;5095048;28;20188;-69
2022/01/30 05:29:41;;;;;;;14.63;3.70;;;;;;;4.39;84.70;102174.25;5113418;28;20209;-69
2022/01/30 05:32:26;;;;;;;13.27;4.17;;;;;;;4.37;84.68;102169.06;5113789;28;20542;-69
2022/01/30 05:35:15;;;;;;;16.90;3.47;;;;;;;4.40;84.48;102173.41;5112877;28;20210;-69
2022/01/30 05:38:02;;;;;;;9.70;3.37;;;;;;;4.40;84.52;102171.66;5113382;28;20226;-70
2022/01/30 05:40:48;;;;;;;14.30;3.63;;;;;;;4.44;84.01;102172.59;5113695;28;20200;-69
2022/01/30 05:43:14;;;;;;;10.93;3.40;;;;;;;4.48;83.95;102178.66;5113669;28;20245;-69
2022/01/30 05:45:59;;;;;;;13.07;3.67;;;;;;;4.48;84.38;102182.09;5097977;28;20192;-69
2022/01/30 05:48:45;;;;;;;13.33;4.30;;;;;;;4.45;84.46;102187.28;5098873;28;20219;-69
2022/01/30 05:51:25;;;;;;;19.00;4.20;;;;;;;4.47;84.38;102188.16;5098701;28;20283;-69
2022/01/30 05:53:58;;;;;;;9.47;3.67;;;;;;;4.47;84.37;102195.94;5098339;28;20208;-69
2022/01/30 05:56:29;;;;;;;14.17;3.83;;;;;;;4.41;84.46;102211.44;5099155;28;20218;-69
2022/01/30 05:59:03;;;;;;;13.67;3.67;;;;;;;4.35;85.12;102208.78;5099080;28;20203;-69
2022/01/30 06:01:30;;;;;;;9.37;3.30;;;;;;;4.34;85.53;102213.09;5116737;28;20225;-69
2022/01/30 06:04:10;;;;;;;11.53;3.60;;;;;;;4.36;84.73;102216.59;5098696;28;20188;-69
2022/01/30 06:06:37;;;;;;;10.83;3.97;;;;;;;4.41;85.02;102224.41;5098296;28;20218;-69
2022/01/30 06:11:42;;;;;;;8.27;2.63;;;;;;;4.42;85.15;102223.53;5097978;28;20210;-69
2022/01/30 06:14:09;;;;;;;11.17;3.50;;;;;;;4.29;85.44;102235.56;5117032;28;20192;-69
2022/01/30 06:16:35;;;;;;;5.60;4.00;;;;;;;4.27;85.90;102231.19;5097889;28;20602;-69
2022/01/30 06:19:18;;;;;;;12.53;3.73;;;;;;;4.29;85.78;102237.28;5098100;28;20210;-69
2022/01/30 06:22:13;;;;;;;12.67;4.47;;;;;;;4.29;85.89;102232.09;5078460;28;20258;-69
2022/01/30 06:24:59;;;;;;;9.83;3.57;;;;;;;4.20;85.86;102232.00;5116277;28;20179;-69
2022/01/30 06:27:46;;;;;;;17.73;4.17;;;;;;;4.22;85.99;102230.31;5115766;28;20240;-69
2022/01/30 06:30:31;;;;;;;11.07;4.23;;;;;;;4.20;85.40;102237.16;5100781;28;20267;-69
2022/01/30 06:33:26;;;;;;;13.73;3.63;;;;;;;4.08;85.69;102233.63;5043003;28;20209;-69
2022/01/30 06:36:16;;;;;;;10.27;4.80;;;;;;;4.01;85.70;102234.41;5115545;28;20206;-69
2022/01/30 06:38:47;;;;;;;9.77;3.53;;;;;;;4.02;85.31;102232.69;5097654;28;20212;-69
2022/01/30 06:41:14;;;;;;;11.67;3.87;;;;;;;3.98;85.37;102241.28;5115977;28;20720;-68
2022/01/30 06:43:59;;;;;;;11.90;3.47;;;;;;;3.98;85.39;102244.72;5116021;28;20663;-69
2022/01/30 06:46:44;;;;;;;23.93;4.40;;;;;;;3.89;85.61;102248.97;5115863;28;20303;-69
2022/01/30 06:49:29;;;;;;;14.63;4.47;;;;;;;3.86;85.57;102249.81;5115752;28;20198;-69
2022/01/30 06:52:11;;;;;;;11.57;3.47;;;;;;;3.82;85.69;102256.66;5115801;28;20261;-69
2022/01/30 06:54:56;;;;;;;3.63;3.13;;;;;;;3.85;85.67;102269.63;5116013;28;20182;-69
2022/01/30 06:57:43;;;;;;;14.80;3.77;;;;;;;3.75;86.00;102274.72;5115472;28;20221;-69
2022/01/30 07:00:28;;;;;;;19.27;3.43;;;;;;;3.80;85.64;102275.63;5115578;28;20192;-69
2022/01/30 07:03:13;;;;;;;16.00;3.90;;;;;;;3.74;85.98;102275.56;5100140;28;20176;-69
2022/01/30 07:05:58;;;;;;;7.83;3.73;;;;;;;3.71;86.26;102272.91;5096980;28;20743;-69
2022/01/30 07:08:32;;;;;;;14.00;4.00;;;;;;;3.71;86.21;102291.91;5096793;28;20258;-69
2022/01/30 07:10:59;;;;;;;22.13;3.97;;;;;;;3.69;86.74;102296.22;5097314;28;20170;-69
2022/01/30 07:13:25;;;;;;;12.87;3.93;;;;;;;3.69;86.37;102300.53;5115255;28;20189;-69
2022/01/30 07:15:52;;;;;;;14.40;4.30;;;;;;;3.78;86.26;102313.59;5115050;28;20219;-69
2022/01/30 07:18:18;;;;;;;17.83;3.47;;;;;;;3.70;86.64;102313.50;5115189;28;20300;-69
2022/01/30 07:20:45;;;;;;;10.83;3.63;;;;;;;3.59;87.46;102321.13;5115250;28;20202;-69
2022/01/30 07:23:11;;;;;;;10.37;3.97;;;;;;;3.64;87.69;102320.31;5115405;28;20503;-69
2022/01/30 07:25:37;;;;;;;17.33;4.63;;;;;;;3.57;87.83;102321.94;5115032;28;20543;-69
2022/01/30 07:28:04;;;;;;;10.47;3.67;;;;;;;3.62;87.60;102314.25;5097462;28;20552;-68
2022/01/30 07:30:30;;;;;;;6.90;3.83;;;;;;;3.53;87.82;102310.69;5114613;28;20231;-69
2022/01/30 07:32:57;;;;;;;8.50;4.03;;;;;;;3.56;87.79;102313.31;5096367;28;20196;-69
2022/01/30 07:35:23;;;;;;;20.10;4.43;;;;;;;3.48;88.06;102317.53;5114916;28;20221;-68
2022/01/30 07:37:51;;;;;;;12.27;3.33;;;;;;;3.53;87.69;102320.19;5114523;28;20204;-69
2022/01/30 07:40:18;;;;;;;8.77;3.90;;;;;;;3.51;87.93;102322.75;5114776;28;20522;-69
2022/01/30 07:42:45;;;;;;;13.73;3.57;;;;;;;3.48;87.91;102325.28;5114426;28;20185;-69
2022/01/30 07:45:14;;;;;;;15.00;4.40;;;;;;;3.50;87.64;102331.38;5096167;28;20651;-69
2022/01/30 07:47:41;;;;;;;22.07;3.33;;;;;;;3.39;88.07;102330.34;5114662;28;20272;-69
2022/01/30 07:50:08;;;;;;;13.33;4.03;;;;;;;3.42;87.76;102327.78;5114823;28;20202;-69
2022/01/30 07:52:35;;;;;;;12.60;2.87;;;;;;;3.44;87.71;102331.28;5114644;28;20181;-69
2022/01/30 07:55:02;;;;;;;3.27;2.63;;;;;;;3.53;87.21;102331.41;5114535;28;20182;-69
2022/01/30 07:57:28;;;;;;;13.73;3.20;;;;;;;3.47;87.47;102339.09;5114678;28;20260;-69
2022/01/30 07:59:55;;;;;;;17.60;3.93;;;;;;;3.57;87.06;102348.75;5114772;28;20295;-69
2022/01/30 08:02:21;;;;;;;24.73;4.00;;;;;;;3.70;86.62;102348.88;5114952;28;20187;-69
2022/01/30 08:04:48;;;;;;;10.93;3.57;;;;;;;3.70;86.65;102354.06;5114062;28;20186;-69
2022/01/30 08:07:15;;;;;;;14.63;3.67;;;;;;;3.70;86.55;102357.53;5113943;28;20183;-69
2022/01/30 08:09:41;;;;;;;7.93;2.90;;;;;;;3.74;86.17;102367.09;5113841;28;20263;-69
2022/01/30 08:12:08;;;;;;;10.07;3.30;;;;;;;3.85;85.89;102369.81;5114002;28;20531;-69
2022/01/30 08:14:35;;;;;;;8.90;2.17;;;;;;;3.83;86.11;102364.63;5114211;28;20219;-69
2022/01/30 08:17:02;;;;;;;19.80;3.30;;;;;;;3.96;85.89;102376.00;5114214;28;20176;-69
2022/01/30 08:19:28;;;;;;;11.20;2.43;;;;;;;4.07;85.62;102365.75;5114195;28;20211;-69
2022/01/30 08:22:01;;;;;;;3.97;3.20;;;;;;;4.08;85.55;102368.41;5114157;28;20203;-69
2022/01/30 08:24:28;;;;;;;11.17;2.80;;;;;;;4.17;85.23;102371.94;5113820;28;20192;-69
2022/01/30 08:26:54;;;;;;;14.00;3.93;;;;;;;4.12;85.28;102375.34;5113816;28;20244;-69
2022/01/30 08:29:21;;;;;;;9.63;3.87;;;;;;;4.31;85.02;102370.38;5113931;28;20257;-69
2022/01/30 08:31:47;;;;;;;5.13;3.43;;;;;;;4.37;84.63;102375.63;5113755;28;20188;-69
2022/01/30 08:34:14;;;;;;;10.57;3.57;;;;;;;4.42;85.09;102382.59;5113995;28;20276;-69
2022/01/30 08:36:40;;;;;;;10.93;3.60;;;;;;;4.49;84.37;102380.06;5095676;28;20184;-69
2022/01/30 08:39:06;;;;;;;6.00;2.80;;;;;;;4.48;84.58;102378.34;5113629;28;20612;-69
2022/01/30 08:41:33;;;;;;;3.93;3.57;;;;;;;4.51;84.66;102380.97;5113667;28;20251;-69
2022/01/30 08:43:59;;;;;;;29.67;4.30;;;;;;;4.53;84.76;102374.06;5113951;28;20237;-68
2022/01/30 08:46:26;;;;;;;6.13;3.33;;;;;;;4.58;84.16;102357.72;5113622;28;20213;-68
2022/01/30 08:48:52;;;;;;;16.20;4.63;;;;;;;4.57;84.72;102366.34;5113532;28;20215;-70
2022/01/30 08:51:21;;;;;;;16.17;3.03;;;;;;;4.56;84.47;102364.59;5113792;28;20207;-69
2022/01/30 08:53:48;;;;;;;9.97;3.97;;;;;;;4.55;84.79;102360.25;5113845;28;20240;-68
2022/01/30 08:56:14;;;;;;;17.03;4.37;;;;;;;4.58;84.65;102359.44;5113813;28;20224;-69
2022/01/30 08:58:41;;;;;;;7.97;3.63;;;;;;;4.54;84.61;102361.13;5095682;28;20225;-69
2022/01/30 09:01:08;;;;;;;16.93;3.33;;;;;;;4.56;85.09;102364.59;5096072;28;20172;-69
2022/01/30 09:03:36;;;;;;;11.83;2.70;;;;;;;4.47;85.06;102364.50;5113793;28;20185;-69
2022/01/30 09:06:02;;;;;;;12.53;4.07;;;;;;;4.62;84.15;102366.38;5114007;28;20178;-69
2022/01/30 09:08:29;;;;;;;16.37;3.47;;;;;;;4.55;84.27;102377.53;5113886;28;20208;-69
2022/01/30 09:10:57;;;;;;;14.07;2.90;;;;;;;4.60;84.35;102368.09;5113619;28;20258;-69
2022/01/30 09:13:24;;;;;;;10.33;3.97;;;;;;;4.64;83.83;102360.38;5113613;28;20541;-69
2022/01/30 09:15:56;;;;;;;17.87;4.20;;;;;;;4.68;84.00;102359.53;5113376;28;20592;-69
2022/01/30 09:18:25;;;;;;;17.00;3.00;;;;;;;4.64;83.85;102362.97;5113269;28;20210;-69
2022/01/30 09:20:53;;;;;;;16.97;4.03;;;;;;;4.74;84.58;102363.03;5116339;28;20651;-69
2022/01/30 09:23:20;;;;;;;9.93;3.87;;;;;;;4.74;84.79;102368.22;5117434;28;20592;-69
2022/01/30 09:25:47;;;;;;;16.00;4.67;;;;;;;4.76;83.30;102361.31;5117340;28;20181;-69
2022/01/30 09:28:15;;;;;;;9.87;4.20;;;;;;;4.66;83.96;102357.78;5117461;28;20250;-69
2022/01/30 09:30:41;;;;;;;15.53;3.93;;;;;;;4.68;83.60;102356.94;5116852;28;20614;-69
2022/01/30 09:33:08;;;;;;;15.97;4.40;;;;;;;4.81;83.30;102357.06;5117241;28;20192;-69
2022/01/30 09:35:34;;;;;;;15.83;4.63;;;;;;;5.05;82.75;102349.47;5117487;28;20233;-69
2022/01/30 09:38:01;;;;;;;25.77;4.63;;;;;;;5.14;82.48;102352.16;5116828;28;20218;-69
2022/01/30 09:40:27;;;;;;;12.30;3.90;;;;;;;5.12;81.36;102345.19;5116836;28;20196;-69
2022/01/30 09:42:56;;;;;;;12.00;4.07;;;;;;;5.14;82.19;102343.47;5098722;28;20191;-69
2022/01/30 09:45:24;;;;;;;7.90;3.77;;;;;;;5.13;82.17;102342.59;5116761;28;20595;-69
2022/01/30 09:47:51;;;;;;;6.27;2.97;;;;;;;5.17;81.92;102346.09;5116668;28;20260;-69
2022/01/30 09:50:20;;;;;;;9.13;3.27;;;;;;;5.02;81.74;102345.97;5116896;28;20586;-69
2022/01/30 09:52:47;;;;;;;16.97;5.13;;;;;;;5.10;80.50;102354.69;5117256;28;20177;-69
2022/01/30 09:55:15;;;;;;;12.40;3.70;;;;;;;5.23;81.46;102361.72;5116575;28;20226;-69
2022/01/30 09:57:43;;;;;;;13.40;3.77;;;;;;;5.30;79.94;102353.13;5116440;28;20210;-69
2022/01/30 10:00:11;;;;;;;12.23;4.00;;;;;;;5.33;78.76;102354.84;5117042;28;20175;-69
2022/01/30 10:02:44;;;;;;;17.17;4.37;;;;;;;5.33;79.73;102362.66;5116342;28;20708;-69
2022/01/30 10:05:12;;;;;;;25.03;4.83;;;;;;;5.29;78.36;102371.25;5116352;28;20177;-69
2022/01/30 10:07:52;;;;;;;15.63;4.27;;;;;;;5.36;78.42;102378.22;5116514;28;20207;-69
2022/01/30 10:10:23;;;;;;;11.83;4.47;;;;;;;5.45;78.39;102386.97;5116260;28;20205;-69
2022/01/30 10:13:07;;;;;;;10.63;4.57;;;;;;;5.50;78.55;102385.28;5116529;28;20180;-69
2022/01/30 10:15:53;;;;;;;16.13;3.97;;;;;;;5.44;79.05;102392.19;5116477;28;20184;-69
2022/01/30 10:18:20;;;;;;;9.77;4.13;;;;;;;5.36;78.11;102393.81;5116175;28;20249;-69
2022/01/30 10:20:47;;;;;;;33.97;4.33;;;;;;;5.38;76.56;102393.00;5116678;28;20185;-69
2022/01/30 10:23:15;;;;;;;23.23;4.50;;;;;;;5.40;76.42;102385.19;5116035;28;20189;-69
2022/01/30 10:25:47;;;;;;;23.17;4.57;;;;;;;5.51;76.04;102389.63;5116592;28;20176;-69
2022/01/30 10:28:14;;;;;;;6.93;3.93;;;;;;;5.62;76.45;102387.06;5116045;28;20691;-69
2022/01/30 10:30:40;;;;;;;11.93;3.80;;;;;;;5.75;75.81;102388.91;5115885;28;20194;-69
2022/01/30 10:33:12;;;;;;;28.60;4.30;;;;;;;5.85;75.51;102394.13;5115869;28;20205;-69
2022/01/30 10:35:56;;;;;;;19.70;3.90;;;;;;;5.95;75.34;102402.03;5115859;28;20165;-69
2022/01/30 10:38:32;;;;;;;14.50;4.17;;;;;;;6.00;74.18;102400.34;5115911;28;20216;-69
2022/01/30 10:41:19;;;;;;;16.10;4.03;;;;;;;6.11;74.46;102386.50;5115751;28;20576;-69
2022/01/30 10:44:05;;;;;;;16.63;4.03;;;;;;;6.20;74.60;102387.38;5116149;28;20172;-69
2022/01/30 10:46:39;;;;;;;32.23;4.90;;;;;;;6.24;73.68;102396.09;5115471;28;20169;-69
2022/01/30 10:49:11;;;;;;;12.73;4.00;;;;;;;6.28;73.26;102390.00;5115566;28;20217;-68
2022/01/30 10:51:38;;;;;;;8.57;3.87;;;;;;;6.35;72.40;102374.44;5115403;28;20216;-69
2022/01/30 10:54:08;;;;;;;17.80;3.93;;;;;;;6.19;72.02;102369.19;5115673;28;20181;-69
2022/01/30 10:56:36;;;;;;;16.20;4.40;;;;;;;6.22;71.48;102388.28;5115439;28;20181;-69
2022/01/30 10:59:22;;;;;;;19.40;4.63;;;;;;;6.37;72.37;102391.81;5097023;28;20254;-69
2022/01/30 11:01:51;;;;;;;16.50;4.53;;;;;;;6.14;72.89;102391.69;5115640;28;20173;-69
2022/01/30 11:04:28;;;;;;;15.80;3.60;;;;;;;6.20;71.66;102400.41;5115763;28;20177;-69
2022/01/30 11:06:56;;;;;;;18.13;4.40;;;;;;;6.28;71.50;102395.22;5097308;28;20511;-69
2022/01/30 11:09:31;;;;;;;15.13;3.90;;;;;;;6.33;71.78;102399.59;5114878;28;20201;-69
2022/01/30 11:12:06;;;;;;;16.03;4.23;;;;;;;6.41;70.97;102399.59;5115322;28;20525;-69
2022/01/30 11:14:52;;;;;;;11.93;4.07;;;;;;;6.44;71.07;102399.63;5114918;28;20169;-69
2022/01/30 11:17:21;;;;;;;20.97;4.97;;;;;;;6.28;71.27;102401.28;5114931;28;20178;-68
2022/01/30 11:19:53;;;;;;;21.10;5.13;;;;;;;6.26;71.44;102396.94;5114940;28;20221;-69
2022/01/30 11:22:27;;;;;;;22.23;5.00;;;;;;;6.14;71.20;102392.56;5115084;28;20516;-69
2022/01/30 11:25:01;;;;;;;11.60;4.40;;;;;;;6.00;70.27;102404.63;5115097;28;20222;-69
2022/01/30 11:27:27;;;;;;;12.90;3.70;;;;;;;5.94;69.37;102402.91;5114682;28;20201;-69
2022/01/30 11:29:54;;;;;;;20.20;6.20;;;;;;;5.99;71.59;102408.09;5114557;28;20528;-69
2022/01/30 11:32:22;;;;;;;15.57;4.10;;;;;;;6.10;70.07;102401.22;5114660;28;20235;-69
2022/01/30 11:34:52;;;;;;;26.87;5.17;;;;;;;6.14;70.96;102392.56;5115090;28;20188;-69
2022/01/30 11:37:32;;;;;;;24.80;4.70;;;;;;;6.26;70.69;102389.16;5114592;28;20207;-69
2022/01/30 11:40:00;;;;;;;20.13;5.03;;;;;;;6.61;70.29;102389.25;5096247;28;20711;-69
2022/01/30 11:42:37;;;;;;;31.37;4.53;;;;;;;6.45;69.12;102377.09;5113603;28;20220;-69
2022/01/30 11:45:06;;;;;;;18.47;4.90;;;;;;;6.25;67.32;102374.41;5114452;28;20181;-69
2022/01/30 11:48:13;;;;;;;18.60;4.50;;;;;;;6.43;69.69;102378.78;5114828;28;20224;-69
2022/01/30 11:50:40;;;;;;;22.60;4.73;;;;;;;6.46;67.12;102364.06;5096893;28;20525;-68
2022/01/30 11:53:26;;;;;;;20.13;4.40;;;;;;;6.39;68.62;102364.06;5114268;28;20189;-69
2022/01/30 11:56:00;;;;;;;15.50;4.60;;;;;;;6.36;70.59;102357.13;5096531;28;20214;-69
2022/01/30 11:58:33;;;;;;;18.80;4.87;;;;;;;6.27;68.92;102362.28;5114687;28;20208;-70
2022/01/30 12:01:05;;;;;;;20.23;4.53;;;;;;;6.28;70.22;102354.47;5095933;28;20226;-68
2022/01/30 12:03:37;;;;;;;22.93;5.07;;;;;;;6.32;69.28;102351.03;5114050;28;20181;-68
2022/01/30 12:06:18;;;;;;;23.27;4.10;;;;;;;6.60;69.36;102345.88;5114287;28;20169;-69
2022/01/30 12:08:48;;;;;;;21.63;4.37;;;;;;;6.65;68.99;102341.56;5113922;28;20613;-68
2022/01/30 12:11:36;;;;;;;25.77;5.03;;;;;;;6.35;69.45;102351.03;5113919;28;20197;-68
2022/01/30 12:14:12;;;;;;;27.33;5.07;;;;;;;6.34;68.88;102349.28;5113907;28;20185;-69
2022/01/30 12:17:05;;;;;;;19.27;4.77;;;;;;;6.32;68.12;102347.56;5114157;28;20182;-69
2022/01/30 12:19:41;;;;;;;26.87;5.37;;;;;;;6.37;68.76;102340.63;5114067;28;20181;-69
2022/01/30 12:22:17;;;;;;;13.10;4.77;;;;;;;6.51;68.04;102340.66;5114184;28;20539;-68
2022/01/30 12:24:52;;;;;;;14.53;4.30;;;;;;;6.87;68.08;102342.44;5113818;28;20193;-68
2022/01/30 12:27:19;;;;;;;12.93;4.27;;;;;;;7.05;66.78;102346.75;5113963;28;20204;-69
2022/01/30 12:29:47;;;;;;;19.67;5.40;;;;;;;6.86;67.05;102351.97;5114368;28;20226;-70
2022/01/30 12:32:20;;;;;;;15.57;4.47;;;;;;;6.55;67.98;102345.00;5113657;28;20696;-69
2022/01/30 12:34:48;;;;;;;27.40;4.80;;;;;;;6.49;69.83;102348.44;5113688;28;20238;-69
2022/01/30 12:37:19;;;;;;;20.67;5.13;;;;;;;6.54;71.02;102341.53;5113838;28;20184;-69
2022/01/30 12:39:46;;;;;;;18.70;4.20;;;;;;;6.43;71.56;102331.97;5113621;28;20193;-69
2022/01/30 12:42:15;;;;;;;33.10;4.83;;;;;;;6.38;70.68;102324.16;5114148;28;20211;-69
2022/01/30 12:44:42;;;;;;;17.00;4.03;;;;;;;6.46;71.33;102321.56;5113573;28;20587;-68
2022/01/30 12:47:09;;;;;;;16.13;5.30;;;;;;;6.41;70.16;102328.50;5113809;28;20692;-70
2022/01/30 12:49:53;;;;;;;11.77;4.33;;;;;;;6.43;71.68;102330.25;5114195;28;20595;-69
2022/01/30 12:52:37;;;;;;;18.13;4.73;;;;;;;6.50;70.94;102323.28;5113713;28;20242;-69
2022/01/30 12:55:10;;;;;;;36.53;5.43;;;;;;;6.44;70.92;102321.56;5116824;28;20177;-69
2022/01/30 12:57:39;;;;;;;18.23;4.83;;;;;;;6.45;71.92;102322.44;5117651;28;20234;-69